Time;durP1;ratioP1;P1;durP2;ratioP2;P2;SDS_P1;SDS_P2;PMS_P1;PMS_P2;Temp;Humidity;BMP_temperature;BMP_pressure;BME280_temperature;BME280_humidity;BME280_pressure;Samples;Min_cycle;Max_cycle;Signal;HPM_P1;HPM_P2
2022/04/02 00:01:36;;;;;;;;;;;0.90;99.90;;;-0.06;100.00;94060.41;10436700;28;1850;-70
2022/04/02 00:06:39;;;;;;;;;;;1.00;99.90;;;-0.21;100.00;94055.75;10431559;28;1837;-70
2022/04/02 00:11:42;;;;;;;;;;;1.00;99.90;;;-0.25;100.00;94056.47;10436090;28;1910;-70
2022/04/02 00:16:45;;;;;;;;;;;0.90;99.90;;;-0.11;100.00;94057.72;10430844;28;2516;-71
2022/04/02 00:21:48;;;;;;;;;;;0.80;99.90;;;-0.10;100.00;94052.16;10438897;28;2106;-70
2022/04/02 00:26:52;;;;;;;;;;;0.90;99.90;;;-0.28;100.00;94055.16;10435270;28;1826;-70
2022/04/02 00:31:55;;;;;;;;;;;0.90;99.90;;;-0.23;100.00;94055.22;10433817;28;1851;-70
2022/04/02 00:36:57;;;;;;;;;;;0.90;99.90;;;-0.22;100.00;94050.72;10436914;28;1987;-71
2022/04/02 00:42:00;;;;;;;;;;;0.80;99.90;;;-0.31;100.00;94060.94;10446590;28;2363;-71
2022/04/02 00:47:03;;;;;;;;;;;0.70;99.90;;;-0.39;100.00;94056.06;10448777;28;1888;-70
2022/04/02 00:52:07;;;;;;;;;;;0.00;99.90;;;-0.42;100.00;94053.94;10445998;28;2056;-71
2022/04/02 00:57:10;;;;;;;;;;;0.80;99.90;;;-0.60;100.00;94053.22;10434077;28;2532;-70
2022/04/02 01:02:13;;;;;;;;;;;0.60;99.90;;;-0.54;100.00;94054.06;10442309;28;1839;-70
2022/04/02 01:07:16;;;;;;;;;;;0.60;99.90;;;-0.55;100.00;94055.91;10435135;28;1894;-69
2022/04/02 01:12:19;;;;;;;;;;;0.70;99.90;;;-0.58;100.00;94053.75;10456538;28;1931;-71
2022/04/02 01:17:22;;;;;;;;;;;0.60;99.90;;;-0.43;100.00;94063.72;10429101;28;1911;-71
2022/04/02 01:22:25;;;;;;;;;;;0.60;99.90;;;-0.29;100.00;94059.63;10434921;28;2028;-71
2022/04/02 01:27:28;;;;;;;;;;;0.80;99.90;;;-0.32;100.00;94068.06;10435451;28;1861;-71
2022/04/02 01:32:36;;;;;;;;;;;0.80;99.90;;;-0.61;100.00;94075.38;10452245;28;1891;-71
2022/04/02 01:37:40;;;;;;;;;;;0.60;99.90;;;-0.67;100.00;94084.25;10444859;28;1933;-71
2022/04/02 01:42:43;;;;;;;;;;;0.50;99.90;;;-0.58;100.00;94089.91;10427903;28;2304;-70
2022/04/02 01:47:46;;;;;;;;;;;0.50;99.90;;;-0.67;100.00;94080.84;10429993;28;2013;-69
2022/04/02 01:52:49;;;;;;;;;;;0.50;99.90;;;-0.75;100.00;94076.78;10427826;28;1826;-71
2022/04/02 01:57:52;;;;;;;;;;;0.50;99.90;;;-0.83;100.00;94088.56;10435699;28;1987;-70
2022/04/02 02:02:55;;;;;;;;;;;;;;;-0.74;100.00;94094.19;10427468;28;2242;-70
2022/04/02 02:07:59;;;;;;;;;;;;;;;-0.83;100.00;94093.00;10432070;28;1795;-72
2022/04/02 02:13:02;;;;;;;;;;;;;;;-0.74;100.00;94090.78;10437279;28;1862;-70
2022/04/02 02:18:05;;;;;;;;;;;;;;;-0.85;100.00;94095.09;10454369;28;2115;-70
2022/04/02 02:23:08;;;;;;;;;;;;;;;-0.89;100.00;94099.25;10429485;28;1842;-72
2022/04/02 02:28:11;;;;;;;;;;;0.40;99.90;;;-0.85;100.00;94095.09;10433827;28;1830;-72
2022/04/02 02:38:35;;;;;;;;;;;0.40;99.90;;;-0.87;100.00;94102.47;10435250;28;2026;-70
2022/04/02 02:43:38;;;;;;;;;;;0.40;99.90;;;-0.93;100.00;94108.72;10429106;28;2044;-69
2022/04/02 02:48:41;;;;;;;;;;;0.30;99.90;;;-0.98;100.00;94106.00;10432863;28;1904;-70
2022/04/02 02:53:44;;;;;;;;;;;0.30;99.90;;;-1.04;100.00;94104.34;10435008;28;1830;-69
2022/04/02 02:58:47;;;;;;;;;;;0.30;99.90;;;-1.09;100.00;94111.13;10434526;28;1917;-70
2022/04/02 03:03:50;;;;;;;;;;;0.20;99.90;;;-1.00;100.00;94108.09;10433465;28;2049;-69
2022/04/02 03:08:52;;;;;;;;;;;0.10;99.90;;;-1.10;100.00;94109.53;10430936;28;1862;-70
2022/04/02 03:13:56;;;;;;;;;;;0.00;99.90;;;-1.04;100.00;94109.59;10435306;28;2057;-70
2022/04/02 03:19:00;;;;;;;;;;;0.00;99.90;;;-1.06;100.00;94106.44;10426928;28;1906;-70
2022/04/02 03:24:03;;;;;;;;;;;0.00;99.90;;;-1.04;100.00;94107.75;10425858;28;1866;-70
2022/04/02 03:29:06;;;;;;;;;;;;;;;-1.02;100.00;94115.44;10438050;28;1909;-70
2022/04/02 03:34:10;;;;;;;;;;;0.00;99.90;;;-1.17;100.00;94123.94;10436313;28;2117;-70
2022/04/02 03:39:12;;;;;;;;;;;-0.20;99.90;;;-1.19;100.00;94123.38;10439813;28;1906;-71
2022/04/02 03:44:15;;;;;;;;;;;-0.10;99.90;;;-1.22;100.00;94129.91;10445978;28;2025;-70
2022/04/02 03:49:18;;;;;;;;;;;-0.10;99.90;;;-1.17;100.00;94132.63;10444512;28;1772;-70
2022/04/02 03:54:21;;;;;;;;;;;-0.20;99.90;;;-1.21;100.00;94139.44;10458068;28;1901;-71
2022/04/02 03:59:24;;;;;;;;;;;0.20;99.90;;;-1.28;100.00;94141.41;10437528;28;1978;-71
2022/04/02 04:04:27;;;;;;;;;;;-0.20;99.90;;;-1.24;100.00;94150.44;10441021;28;2145;-71
2022/04/02 04:09:30;;;;;;;;;;;-0.20;99.90;;;-1.28;100.00;94151.97;10445007;28;2029;-71
2022/04/02 04:14:32;;;;;;;;;;;-0.20;99.90;;;-1.33;100.00;94164.28;10441575;28;1997;-71
2022/04/02 04:19:35;;;;;;;;;;;-0.30;99.90;;;-1.44;100.00;94163.31;10434267;28;1910;-71
2022/04/02 04:24:39;;;;;;;;;;;;;;;-1.38;100.00;94175.53;10446745;28;1996;-72
2022/04/02 04:29:42;;;;;;;;;;;-0.20;99.90;;;-1.47;100.00;94187.50;10447787;28;1782;-71
2022/04/02 04:34:45;;;;;;;;;;;-0.40;99.90;;;-1.45;100.00;94174.88;10451090;28;1830;-70
2022/04/02 04:39:48;;;;;;;;;;;-0.40;99.90;;;-1.48;100.00;94175.34;10435575;28;2016;-71
2022/04/02 04:44:51;;;;;;;;;;;-0.40;99.90;;;-1.43;100.00;94180.72;10436392;28;2005;-70
2022/04/02 04:49:54;;;;;;;;;;;-0.40;99.90;;;-1.34;100.00;94208.28;10454559;22;2484;-69
2022/04/02 04:54:56;;;;;;;;;;;-0.40;99.90;;;-1.49;100.00;94197.47;10557408;28;1905;-69
2022/04/02 04:59:59;;;;;;;;;;;-0.40;99.90;;;-1.48;100.00;94206.97;10550858;28;1980;-69
2022/04/02 05:05:02;;;;;;;;;;;-0.40;99.90;;;-1.46;100.00;94210.19;10517083;28;2380;-69
2022/04/02 05:10:25;;;;;;;;;;;-0.40;99.90;;;-1.53;100.00;94220.06;10513456;28;1867;-69
2022/04/02 05:15:28;;;;;;;;;;;-0.50;99.90;;;-1.56;100.00;94225.81;10536715;28;1947;-69
2022/04/02 05:20:31;;;;;;;;;;;-0.40;99.90;;;-1.49;100.00;94226.47;10515606;28;1906;-69
2022/04/02 05:25:34;;;;;;;;;;;-0.40;99.90;;;-1.54;100.00;94232.44;10518156;28;1983;-69
2022/04/02 05:30:37;;;;;;;;;;;0.20;99.90;;;-1.59;100.00;94236.81;10519840;28;1982;-69
2022/04/02 05:35:40;;;;;;;;;;;-0.50;99.90;;;-1.70;100.00;94252.44;10511507;28;2016;-69
2022/04/02 05:40:46;;;;;;;;;;;-0.60;99.90;;;-1.69;100.00;94243.50;10518348;28;1921;-69
2022/04/02 05:45:48;;;;;;;;;;;-0.60;99.90;;;-1.69;100.00;94254.03;10505691;28;1875;-69
2022/04/02 05:50:53;;;;;;;;;;;-0.70;99.90;;;-1.64;100.00;94266.50;10512594;28;1904;-69
2022/04/02 05:55:56;;;;;;;;;;;-0.60;99.90;;;-1.77;100.00;94266.78;10508174;28;1791;-70
2022/04/02 06:01:00;;;;;;;;;;;-0.40;99.90;;;-1.83;100.00;94273.00;10515498;28;1941;-69
2022/04/02 06:06:03;;;;;;;;;;;;;;;-1.82;100.00;94282.50;10516593;28;2101;-68
2022/04/02 06:11:06;;;;;;;;;;;-1.90;99.90;;;-1.77;100.00;94288.66;10510714;28;1839;-70
2022/04/02 06:16:09;;;;;;;;;;;-2.80;99.90;;;-1.67;100.00;94303.84;10516839;28;1918;-67
2022/04/02 06:21:14;;;;;;;;;;;-0.60;99.90;;;-1.56;100.00;94299.59;10530833;28;1972;-68
2022/04/02 06:26:17;;;;;;;;;;;-0.40;99.90;;;-1.48;100.00;94313.19;10508816;28;1843;-67
2022/04/02 06:31:21;;;;;;;;;;;-0.50;99.90;;;-1.37;100.00;94314.19;10517585;28;2028;-68
2022/04/02 06:36:24;;;;;;;;;;;-0.40;99.90;;;-1.42;100.00;94322.00;10537201;28;1842;-68
2022/04/02 06:41:27;;;;;;;;;;;;;;;-1.06;100.00;94320.03;10516698;28;2044;-69
2022/04/02 06:46:30;;;;;;;;;;;0.10;99.90;;;-1.08;100.00;94322.91;10515840;28;1838;-68
2022/04/02 06:51:33;;;;;;;;;;;0.00;99.90;;;-1.03;100.00;94325.63;10519737;28;1817;-68
2022/04/02 06:56:36;;;;;;;;;;;-0.10;99.90;;;-1.05;100.00;94334.81;10517176;28;1996;-67
2022/04/02 07:01:39;;;;;;;;;;;0.10;99.90;;;-1.32;100.00;94345.94;10518054;28;1957;-68
2022/04/02 07:06:44;;;;;;;;;;;-0.10;99.90;;;-1.34;100.00;94339.28;10520156;28;1858;-68
2022/04/02 07:11:47;;;;;;;;;;;-0.20;99.90;;;-1.33;100.00;94357.50;10525862;28;2076;-68
2022/04/02 07:16:50;;;;;;;;;;;-0.20;99.90;;;-0.91;100.00;94354.59;10522063;28;1973;-69
2022/04/02 07:21:53;;;;;;;;;;;0.00;99.90;;;-0.87;100.00;94361.00;10523464;28;1776;-68
2022/04/02 07:26:56;;;;;;;;;;;0.20;99.90;;;-0.86;100.00;94365.22;10520751;28;1956;-69
2022/04/02 07:31:59;;;;;;;;;;;0.30;99.90;;;-0.50;100.00;94371.94;10515178;28;1834;-68
2022/04/02 07:37:04;;;;;;;;;;;0.40;99.90;;;-0.72;100.00;94384.19;10519603;28;1945;-68
2022/04/02 07:42:07;;;;;;;;;;;0.50;99.90;;;-0.90;100.00;94398.38;10517073;28;1838;-68
2022/04/02 07:47:11;;;;;;;;;;;0.30;99.90;;;-0.43;100.00;94398.19;10512810;28;1823;-70
2022/04/02 07:52:14;;;;;;;;;;;0.50;99.90;;;-0.74;100.00;94402.13;10512782;28;2008;-70
2022/04/02 07:57:17;;;;;;;;;;;0.50;99.90;;;-0.63;100.00;94410.00;10510418;28;2028;-68
2022/04/02 08:02:38;;;;;;;;;;;0.50;99.90;;;-0.45;100.00;94416.06;10518336;28;1868;-68
2022/04/02 08:07:43;;;;;;;;;;;0.50;99.90;;;-0.52;100.00;94420.72;10534531;27;1911;-68
2022/04/02 08:12:46;;;;;;;;;;;0.60;99.90;;;-0.70;100.00;94421.69;10509300;28;2005;-69
2022/04/02 08:17:52;;;;;;;;;;;0.50;99.90;;;-0.67;100.00;94429.97;10521256;28;1971;-68
2022/04/02 08:22:56;;;;;;;;;;;0.30;99.90;;;-0.37;100.00;94440.28;10515909;28;1867;-70
2022/04/02 08:27:59;;;;;;;;;;;0.50;99.90;;;-0.67;100.00;94450.28;10514882;28;2161;-68
2022/04/02 08:33:02;;;;;;;;;;;0.50;99.90;;;-0.87;100.00;94454.13;10513016;28;1941;-69
2022/04/02 08:38:04;;;;;;;;;;;0.40;99.90;;;-0.86;100.00;94463.66;10513996;28;1935;-69
2022/04/02 08:43:07;;;;;;;;;;;0.30;99.90;;;-0.43;100.00;94464.97;10529079;28;2462;-69
2022/04/02 08:48:11;;;;;;;;;;;0.40;99.90;;;0.14;100.00;94472.00;10511285;28;2021;-69
2022/04/02 08:53:14;;;;;;;;;;;1.00;99.90;;;0.10;100.00;94476.16;10520278;28;1811;-69
2022/04/02 08:58:18;;;;;;;;;;;1.20;99.90;;;0.58;100.00;94488.00;10525798;28;1914;-68
2022/04/02 09:03:22;;;;;;;;;;;1.40;99.90;;;0.11;100.00;94499.69;10510200;28;2152;-68
2022/04/02 09:08:26;;;;;;;;;;;1.50;99.90;;;0.26;100.00;94497.31;10513170;28;1859;-68
2022/04/02 09:13:29;;;;;;;;;;;1.30;99.90;;;-0.08;100.00;94506.25;10516377;28;1845;-68
2022/04/02 09:18:33;;;;;;;;;;;1.10;99.90;;;-0.10;100.00;94517.06;10527747;28;2047;-68
2022/04/02 09:23:36;;;;;;;;;;;1.00;99.90;;;0.16;100.00;94522.75;10536098;28;2013;-68
2022/04/02 09:28:39;;;;;;;;;;;1.00;99.90;;;0.17;100.00;94524.38;10510057;28;2349;-68
2022/04/02 09:33:42;;;;;;;;;;;1.30;99.90;;;-0.12;100.00;94529.69;10512571;28;1969;-68
2022/04/02 09:38:49;;;;;;;;;;;1.10;99.90;;;-0.43;100.00;94536.25;10509578;28;1925;-69
2022/04/02 09:43:52;;;;;;;;;;;0.80;99.90;;;-0.49;100.00;94541.69;10517784;28;2155;-69
2022/04/02 09:48:55;;;;;;;;;;;0.50;99.90;;;-0.59;100.00;94539.63;10514817;28;1916;-68
2022/04/02 09:54:01;;;;;;;;;;;0.50;99.90;;;-0.66;100.00;94547.69;10518666;28;1961;-68
2022/04/02 09:59:04;;;;;;;;;;;0.50;99.90;;;-0.59;100.00;94547.53;10513278;28;1991;-68
2022/04/02 10:04:07;;;;;;;;;;;0.50;99.90;;;-0.30;100.00;94551.03;10515682;28;1922;-68
2022/04/02 10:09:10;;;;;;;;;;;0.70;99.90;;;-0.41;100.00;94550.00;10514946;28;1937;-68
2022/04/02 10:14:13;;;;;;;;;;;0.60;99.90;;;-0.31;100.00;94557.34;10511158;28;1815;-69
2022/04/02 10:19:17;;;;;;;;;;;0.60;99.90;;;-0.25;100.00;94568.78;10505377;28;1918;-69
2022/04/02 10:24:20;;;;;;;;;;;0.70;99.90;;;-0.30;100.00;94572.94;10513037;28;2005;-68
2022/04/02 10:29:23;;;;;;;;;;;0.80;99.90;;;-0.11;100.00;94576.19;10521208;28;2005;-68
2022/04/02 10:34:27;;;;;;;;;;;;;;;-0.14;100.00;94576.66;10512259;28;1870;-70
2022/04/02 10:39:29;;;;;;;;;;;0.80;99.90;;;-0.19;100.00;94581.88;10522893;28;2032;-68
2022/04/02 10:44:32;;;;;;;;;;;0.90;99.90;;;0.03;100.00;94591.75;10522006;28;1981;-68
2022/04/02 10:49:35;;;;;;;;;;;1.00;99.90;;;0.02;100.00;94592.81;10531519;28;1943;-67
2022/04/02 10:54:38;;;;;;;;;;;1.00;99.90;;;0.08;100.00;94600.59;10537522;28;1854;-69
2022/04/02 10:59:42;;;;;;;;;;;1.10;99.90;;;-0.23;100.00;94604.50;10519428;28;2029;-68
2022/04/02 11:04:46;;;;;;;;;;;1.00;99.90;;;0.24;100.00;94604.28;10509982;22;3443;-68
2022/04/02 11:09:49;;;;;;;;;;;1.10;99.90;;;0.01;100.00;94617.63;10475126;28;1833;-67
2022/04/02 11:14:53;;;;;;;;;;;1.10;99.90;;;0.62;100.00;94616.03;10470870;28;1959;-69
2022/04/02 11:19:56;;;;;;;;;;;1.40;99.90;;;0.47;100.00;94619.25;10488102;28;2019;-69
2022/04/02 11:24:59;;;;;;;;;;;1.60;99.90;;;0.27;100.00;94624.97;10488587;28;1895;-69
2022/04/02 11:30:02;;;;;;;;;;;1.50;99.90;;;0.51;100.00;94629.09;10478007;28;2413;-70
2022/04/02 11:35:06;;;;;;;;;;;1.60;99.90;;;0.07;100.00;94651.03;10471864;28;1793;-69
2022/04/02 11:40:11;;;;;;;;;;;1.50;99.90;;;-0.07;100.00;94639.91;10475647;28;2159;-70
2022/04/02 11:45:14;;;;;;;;;;;1.30;99.90;;;0.25;100.00;94648.19;10485319;28;1845;-69
2022/04/02 11:50:16;;;;;;;;;;;1.20;99.90;;;0.13;100.00;94644.81;10475003;28;1852;-70
2022/04/02 11:55:23;;;;;;;;;;;1.20;99.90;;;0.09;100.00;94648.94;10474909;28;1726;-70
2022/04/02 12:00:27;;;;;;;;;;;1.10;99.90;;;0.18;100.00;94652.81;10477968;28;1920;-70
2022/04/02 12:05:30;;;;;;;;;;;1.20;99.90;;;0.15;100.00;94656.75;10469022;28;1809;-69
2022/04/02 12:10:36;;;;;;;;;;;;;;;0.36;100.00;94657.09;10477301;28;1806;-69
2022/04/02 12:15:39;;;;;;;;;;;;;;;0.16;100.00;94676.03;10473785;28;2009;-69
2022/04/02 12:20:43;;;;;;;;;;;;;;;0.15;100.00;94661.22;10482275;28;1887;-69
2022/04/02 12:25:47;;;;;;;;;;;;;;;-0.16;100.00;94681.75;10487351;28;1806;-69
2022/04/02 12:30:51;;;;;;;;;;;;;;;-0.12;100.00;94674.97;10487419;28;1982;-69
2022/04/02 12:35:54;;;;;;;;;;;;;;;-0.22;100.00;94693.25;10473887;28;1893;-70
2022/04/02 12:40:58;;;;;;;;;;;;;;;0.10;100.00;94695.47;10472253;28;1917;-69
2022/04/02 12:46:01;;;;;;;;;;;;;;;0.26;100.00;94702.66;10478815;28;1974;-69
2022/04/02 12:51:05;;;;;;;;;;;;;;;0.26;100.00;94703.47;10475045;28;2008;-69
2022/04/02 12:56:08;;;;;;;;;;;;;;;0.32;100.00;94701.72;10471816;28;1955;-69
2022/04/02 13:01:12;;;;;;;;;;;;;;;0.23;100.00;94705.78;10475391;28;2349;-69
2022/04/02 13:06:16;;;;;;;;;;;;;;;-0.24;100.00;94721.75;10473842;28;1830;-69
2022/04/02 13:11:20;;;;;;;;;;;;;;;-0.62;100.00;94725.66;10465188;28;1833;-69
2022/04/02 13:16:23;;;;;;;;;;;;;;;-0.59;100.00;94732.31;10471213;28;1887;-69
2022/04/02 13:21:27;;;;;;;;;;;;;;;-0.27;100.00;94730.91;10467808;28;1980;-69
2022/04/02 13:26:30;;;;;;;;;;;;;;;-0.18;100.00;94741.94;10489530;28;1845;-70
2022/04/02 13:31:34;;;;;;;;;;;;;;;-0.53;100.00;94747.22;10478693;28;1988;-70
2022/04/02 13:36:37;;;;;;;;;;;;;;;-1.30;100.00;94762.22;10466990;28;1806;-69
2022/04/02 13:41:41;;;;;;;;;;;;;;;-1.02;100.00;94772.97;10472965;28;1973;-69
2022/04/02 13:46:45;;;;;;;;;;;;;;;-0.61;100.00;94771.34;10470776;28;1858;-70
2022/04/02 13:51:48;;;;;;;;;;;;;;;-0.62;100.00;94767.91;10496191;28;2018;-70
2022/04/02 13:56:53;;;;;;;;;;;;;;;-1.20;100.00;94778.34;10508169;28;1933;-70
2022/04/02 14:01:56;;;;;;;;;;;;;;;-1.21;100.00;94785.44;10506173;28;1910;-69
2022/04/02 14:07:00;;;;;;;;;;;;;;;-1.04;100.00;94780.31;10525242;28;1789;-72
2022/04/02 14:12:04;;;;;;;;;;;;;;;-1.05;100.00;94783.19;10505326;28;2078;-70
2022/04/02 14:17:08;;;;;;;;;;;;;;;-1.04;100.00;94787.44;10513653;28;1900;-70
2022/04/02 14:22:11;;;;;;;;;;;;;;;-1.13;100.00;94789.59;10512137;28;1985;-70
2022/04/02 14:27:14;;;;;;;;;;;;;;;-0.80;100.00;94799.66;10518672;28;1920;-70
2022/04/02 14:32:18;;;;;;;;;;;;;;;-0.77;100.00;94799.19;10519662;28;2329;-70
2022/04/02 14:37:21;;;;;;;;;;;;;;;-1.03;100.00;94815.41;10524428;28;1750;-68
2022/04/02 14:42:25;;;;;;;;;;;;;;;-0.63;100.00;94818.28;10493253;28;1961;-69
2022/04/02 14:47:28;;;;;;;;;;;;;;;-0.68;100.00;94818.16;10468008;28;1805;-69
2022/04/02 14:52:32;;;;;;;;;;;;;;;-0.51;100.00;94815.63;10476267;28;1864;-69
2022/04/02 14:57:37;;;;;;;;;;;;;;;-0.78;100.00;94826.59;10467662;28;1876;-70
2022/04/02 15:02:40;;;;;;;;;;;0.20;99.90;;;-0.72;100.00;94838.91;10480396;28;1882;-68
2022/04/02 15:07:46;;;;;;;;;;;;;;;-0.89;100.00;94836.13;10477994;28;2118;-69
2022/04/02 15:12:49;;;;;;;;;;;;;;;-0.65;100.00;94838.78;10476970;28;1813;-69
2022/04/02 15:17:52;;;;;;;;;;;;;;;-0.94;100.00;94849.16;10475666;28;2114;-69
2022/04/02 15:22:56;;;;;;;;;;;;;;;-0.74;100.00;94856.00;10478216;28;2088;-69
2022/04/02 15:28:01;;;;;;;;;;;;;;;-1.02;100.00;94869.75;10485425;28;2075;-69
2022/04/02 15:33:05;;;;;;;;;;;-0.20;99.90;;;-1.20;100.00;94873.25;10480209;28;2082;-69
2022/04/02 15:38:08;;;;;;;;;;;-0.60;99.90;;;-1.38;100.00;94889.91;10482187;28;1821;-69
2022/04/02 15:43:11;;;;;;;;;;;-0.30;99.90;;;-1.47;100.00;94896.47;10481957;28;1989;-70
2022/04/02 15:48:15;;;;;;;;;;;-0.40;99.90;;;-1.31;100.00;94913.56;10478909;28;2203;-69
2022/04/02 15:53:18;;;;;;;;;;;-0.40;99.90;;;-1.23;100.00;94918.53;10483443;28;1786;-70
2022/04/02 15:58:24;;;;;;;;;;;-0.30;99.90;;;-1.22;100.00;94928.84;10480615;28;1815;-69
2022/04/02 16:03:27;;;;;;;;;;;;;;;-1.25;100.00;94934.56;10482725;28;1920;-69
2022/04/02 16:08:31;;;;;;;;;;;;;;;-1.33;100.00;94942.78;10484067;28;2244;-69
2022/04/02 16:13:38;;;;;;;;;;;;;;;-1.19;100.00;94944.22;10483253;28;1798;-69
2022/04/02 16:18:41;;;;;;;;;;;-0.30;99.90;;;-1.19;100.00;94949.50;10478478;28;1868;-69
2022/04/02 16:23:44;;;;;;;;;;;;;;;-1.29;100.00;94954.47;10478165;28;1969;-68
2022/04/02 16:28:48;;;;;;;;;;;;;;;-1.39;100.00;94973.47;10480262;28;2050;-70
2022/04/02 16:33:52;;;;;;;;;;;-0.50;99.90;;;-1.57;100.00;94977.91;10479542;28;1860;-70
2022/04/02 16:38:55;;;;;;;;;;;-0.70;99.90;;;-1.56;100.00;94984.78;10480192;28;1871;-68
2022/04/02 16:43:58;;;;;;;;;;;-0.60;99.90;;;-1.69;100.00;94993.59;10475221;28;2120;-66
2022/04/02 16:49:02;;;;;;;;;;;-0.80;99.90;;;-1.54;100.00;94994.06;10477170;28;1856;-68
2022/04/02 16:54:05;;;;;;;;;;;-0.60;99.90;;;-1.43;100.00;95009.19;10480595;28;1866;-68
2022/04/02 16:59:10;;;;;;;;;;;-0.60;99.90;;;-1.43;100.00;95016.28;10476522;28;1968;-68
2022/04/02 17:04:13;;;;;;;;;;;-0.50;99.90;;;-1.68;100.00;95030.28;10474452;28;1876;-68
2022/04/02 17:09:16;;;;;;;;;;;-0.60;99.90;;;-1.59;100.00;95040.53;10471944;28;1867;-68
2022/04/02 17:14:21;;;;;;;;;;;-0.70;99.90;;;-1.64;100.00;95049.13;10475261;28;1789;-68
2022/04/02 17:19:25;;;;;;;;;;;-0.70;99.90;;;-1.54;100.00;95048.63;10477762;28;1918;-68
2022/04/02 17:24:32;;;;;;;;;;;-0.60;99.90;;;-1.56;100.00;95048.03;10476763;28;1873;-67
2022/04/02 17:29:35;;;;;;;;;;;-0.60;99.90;;;-1.56;100.00;95053.31;10495917;28;1825;-68
2022/04/02 17:34:38;;;;;;;;;;;-0.60;99.90;;;-1.55;100.00;95068.91;10482394;28;1861;-68
2022/04/02 17:39:41;;;;;;;;;;;-0.60;99.90;;;-2.01;100.00;95074.50;10475498;28;2145;-68
2022/04/02 17:44:44;;;;;;;;;;;-0.90;99.90;;;-2.00;100.00;95076.91;10475900;28;1861;-67
2022/04/02 17:49:48;;;;;;;;;;;-1.00;99.90;;;-2.01;100.00;95087.69;10469602;28;1853;-67
2022/04/02 17:54:51;;;;;;;;;;;-1.00;99.90;;;-1.93;100.00;95097.94;10476053;28;1801;-67
2022/04/02 17:59:56;;;;;;;;;;;-1.00;99.90;;;-1.82;100.00;95112.28;10479887;28;1926;-67
2022/04/02 18:04:58;;;;;;;;;;;-0.90;99.90;;;-1.87;100.00;95115.53;10475280;28;1865;-68
2022/04/02 18:10:06;;;;;;;;;;;-0.90;99.90;;;-1.95;100.00;95140.31;10477546;28;1778;-68
2022/04/02 18:15:09;;;;;;;;;;;-0.90;99.90;;;-1.89;100.00;95141.28;10475210;28;1844;-67
2022/04/02 18:20:12;;;;;;;;;;;-0.90;99.90;;;-2.01;100.00;95148.25;10480809;28;2007;-67
2022/04/02 18:25:15;;;;;;;;;;;-1.00;99.90;;;-2.09;100.00;95159.84;10471610;28;1828;-68
2022/04/02 18:30:18;;;;;;;;;;;-1.00;99.90;;;-1.99;100.00;95177.81;10475230;28;1868;-70
2022/04/02 18:35:21;;;;;;;;;;;-1.00;99.90;;;-2.05;100.00;95178.66;10474048;28;1798;-66
2022/04/02 18:40:24;;;;;;;;;;;-1.00;99.90;;;-2.07;100.00;95188.59;10478430;28;1975;-68
2022/04/02 18:45:27;;;;;;;;;;;-1.00;99.90;;;-2.13;100.00;95199.97;10479038;28;1832;-68
2022/04/02 18:50:30;;;;;;;;;;;-1.10;99.90;;;-2.08;100.00;95213.31;10489202;28;1920;-67
2022/04/02 18:55:34;;;;;;;;;;;-1.10;99.90;;;-2.08;100.00;95222.03;10497905;28;1867;-68
2022/04/02 19:00:37;;;;;;;;;;;-1.10;99.90;;;-2.04;100.00;95223.19;10483687;28;2140;-68
2022/04/02 19:05:40;;;;;;;;;;;-1.10;99.90;;;-2.04;100.00;95231.09;10484353;28;1817;-67
2022/04/02 19:10:43;;;;;;;;;;;-1.10;99.90;;;-2.02;100.00;95238.81;10487471;28;1907;-69
2022/04/02 19:15:46;;;;;;;;;;;-1.00;99.90;;;-1.98;100.00;95258.44;10487842;28;1849;-67
2022/04/02 19:20:50;;;;;;;;;;;-1.10;99.90;;;-1.88;100.00;95250.91;10493832;28;1906;-68
2022/04/02 19:25:53;;;;;;;;;;;-1.10;99.90;;;-2.06;100.00;95263.94;10492920;28;1793;-68
2022/04/02 19:30:57;;;;;;;;;;;-1.00;99.90;;;-1.96;100.00;95269.59;10502235;28;1873;-67
2022/04/02 19:36:00;;;;;;;;;;;-1.00;99.90;;;-2.17;100.00;95273.28;10517233;28;1817;-68
2022/04/02 19:41:03;;;;;;;;;;;-1.10;99.90;;;-2.13;100.00;95274.50;10506793;28;1914;-69
2022/04/02 19:46:06;;;;;;;;;;;-1.10;99.90;;;-2.03;100.00;95287.25;10511428;28;1737;-68
2022/04/02 19:51:09;;;;;;;;;;;-1.10;99.90;;;-2.06;100.00;95285.81;10522187;28;1828;-68
2022/04/02 19:56:12;;;;;;;;;;;-1.10;99.90;;;-2.05;100.00;95284.78;10507216;28;1833;-69
2022/04/02 20:01:15;;;;;;;;;;;-1.10;99.90;;;-1.86;100.00;95295.47;10516345;28;1965;-69
2022/04/02 20:06:18;;;;;;;;;;;-0.90;99.90;;;-1.82;100.00;95292.25;10507321;28;1876;-71
2022/04/02 20:11:21;;;;;;;;;;;-0.90;99.90;;;-1.78;100.00;95304.00;10518041;22;2458;-69
2022/04/02 20:16:24;;;;;;;;;;;-0.70;99.90;;;-1.82;100.00;95300.13;10433728;28;1417;-68
2022/04/02 20:21:27;;;;;;;;;;;-0.80;99.90;;;-1.76;100.00;95295.88;10446245;28;1918;-68
2022/04/02 20:26:31;;;;;;;;;;;-0.80;99.90;;;-1.85;100.00;95297.91;10437453;28;1435;-69
2022/04/02 20:31:34;;;;;;;;;;;-0.80;99.90;;;-1.54;100.00;95302.44;10444188;28;1471;-70
2022/04/02 20:36:36;;;;;;;;;;;-0.60;99.90;;;-1.74;100.00;95299.09;10444192;28;1590;-69
2022/04/02 20:41:39;;;;;;;;;;;-0.70;99.90;;;-1.54;100.00;95306.91;10437704;28;1914;-71
2022/04/02 20:46:46;;;;;;;;;;;-0.70;99.90;;;-1.49;100.00;95301.84;10436393;28;1404;-72
2022/04/02 20:51:50;;;;;;;;;;;-0.60;99.90;;;-1.42;100.00;95307.88;10441672;28;1564;-70
2022/04/02 20:56:53;;;;;;;;;;;-0.40;99.90;;;-1.29;100.00;95315.72;10438382;28;1409;-70
2022/04/02 21:01:57;;;;;;;;;;;-0.40;99.90;;;-1.24;100.00;95309.81;10442464;28;1887;-71
2022/04/02 21:07:00;;;;;;;;;;;-0.30;99.90;;;-1.33;100.00;95311.09;10435636;28;1533;-69
2022/04/02 21:12:03;;;;;;;;;;;-0.40;99.90;;;-1.26;100.00;95317.16;10447316;28;1484;-69
2022/04/02 21:17:07;;;;;;;;;;;-0.30;99.90;;;-1.43;100.00;95327.34;10431759;28;1471;-69
2022/04/02 21:22:10;;;;;;;;;;;-0.40;99.90;;;-1.62;100.00;95321.16;10448057;28;1999;-70
2022/04/02 21:27:13;;;;;;;;;;;-0.40;99.90;;;-1.68;100.00;95324.63;10432502;28;1504;-70
2022/04/02 21:32:16;;;;;;;;;;;-0.60;99.90;;;-1.71;100.00;95331.13;10436711;28;1747;-70
2022/04/02 21:37:20;;;;;;;;;;;-0.70;99.90;;;-1.58;100.00;95337.38;10437322;28;1493;-68
2022/04/02 21:42:24;;;;;;;;;;;-0.70;99.90;;;-1.55;100.00;95342.22;10435102;28;1906;-70
2022/04/02 21:47:28;;;;;;;;;;;-0.60;99.90;;;-1.47;100.00;95337.50;10432445;28;1497;-70
2022/04/02 21:52:31;;;;;;;;;;;-0.60;99.90;;;-1.53;100.00;95345.44;10432816;28;1889;-69
2022/04/02 21:57:34;;;;;;;;;;;-0.50;99.90;;;-1.58;100.00;95338.16;10428447;28;1584;-69
2022/04/02 22:02:37;;;;;;;;;;;-0.60;99.90;;;-1.66;100.00;95338.38;10426721;28;2000;-69
2022/04/02 22:07:41;;;;;;;;;;;-0.60;99.90;;;-1.63;100.00;95346.69;10452252;28;1509;-69
2022/04/02 22:12:45;;;;;;;;;;;-0.70;99.90;;;-1.70;100.00;95348.53;10433822;28;1567;-70
2022/04/02 22:17:48;;;;;;;;;;;-0.60;99.90;;;-1.64;100.00;95352.19;10426241;28;1472;-70
2022/04/02 22:22:52;;;;;;;;;;;-0.70;99.90;;;-1.58;100.00;95351.34;10428192;28;2022;-70
2022/04/02 22:27:58;;;;;;;;;;;-0.70;99.90;;;-1.57;100.00;95355.59;10425665;28;1543;-70
2022/04/02 22:33:02;;;;;;;;;;;-0.60;99.90;;;-1.45;100.00;95366.31;10440958;28;1524;-70
2022/04/02 22:38:09;;;;;;;;;;;-0.50;99.90;;;-1.72;100.00;95369.03;10443520;28;1556;-70
2022/04/02 22:43:11;;;;;;;;;;;-0.60;99.90;;;-1.67;100.00;95369.19;10443818;28;1911;-70
2022/04/02 22:48:15;;;;;;;;;;;-0.60;99.90;;;-1.53;100.00;95369.97;10456945;28;1544;-70
2022/04/02 22:53:18;;;;;;;;;;;-0.60;99.90;;;-1.77;100.00;95383.84;10454964;28;1503;-70
2022/04/02 22:58:21;;;;;;;;;;;-0.70;99.90;;;-1.70;100.00;95380.16;10439724;28;1473;-70
2022/04/02 23:03:24;;;;;;;;;;;-0.70;99.90;;;-1.74;100.00;95378.94;10448291;28;1910;-68
2022/04/02 23:08:27;;;;;;;;;;;-0.70;99.90;;;-1.68;100.00;95378.13;10442210;28;1469;-69
2022/04/02 23:13:30;;;;;;;;;;;-0.70;99.90;;;-1.55;100.00;95382.56;10442053;28;1441;-68
2022/04/02 23:18:33;;;;;;;;;;;-0.60;99.90;;;-1.64;100.00;95387.25;10441447;28;1424;-71
2022/04/02 23:23:36;;;;;;;;;;;-0.60;99.90;;;-1.77;100.00;95394.38;10442645;28;1975;-70
2022/04/02 23:28:39;;;;;;;;;;;-0.70;99.90;;;-1.64;100.00;95384.63;10441036;28;1524;-69
2022/04/02 23:33:42;;;;;;;;;;;-0.70;99.90;;;-1.78;100.00;95398.00;10447031;28;1492;-70
2022/04/02 23:38:45;;;;;;;;;;;-0.70;99.90;;;-1.79;100.00;95397.19;10447165;28;1761;-69
2022/04/02 23:43:48;;;;;;;;;;;-0.70;99.90;;;-1.81;100.00;95398.44;10441570;28;2078;-69